createdAt,value
2023-09-30T00:00:50.920Z,1.33
2023-09-30T00:01:54.396Z,1.60
2023-09-30T00:02:57.446Z,2.28
2023-09-30T00:04:02.459Z,0.70
2023-09-30T00:05:06.521Z,1.23
2023-09-30T00:06:09.498Z,2.05
2023-09-30T00:07:12.672Z,2.00
2023-09-30T00:08:15.652Z,1.43
2023-09-30T00:09:18.639Z,1.10
2023-09-30T00:10:21.352Z,1.60
2023-09-30T00:11:24.215Z,1.50
2023-09-30T00:12:28.321Z,1.37
2023-09-30T00:13:31.376Z,2.15
2023-09-30T00:14:34.221Z,1.80
2023-09-30T00:15:37.226Z,1.58
2023-09-30T00:16:40.473Z,1.02
2023-09-30T00:17:43.996Z,1.15
2023-09-30T00:18:47.544Z,1.63
2023-09-30T00:19:50.515Z,1.33
2023-09-30T00:20:53.462Z,3.00
2023-09-30T00:21:56.649Z,2.28
2023-09-30T00:22:59.792Z,1.85
2023-09-30T00:24:02.766Z,1.02
2023-09-30T00:25:06.037Z,1.45
2023-09-30T00:26:09.210Z,1.80
2023-09-30T00:27:11.971Z,1.48
2023-09-30T00:28:16.038Z,1.10
2023-09-30T00:29:19.176Z,1.67
2023-09-30T00:30:25.050Z,1.95
2023-09-30T00:31:27.970Z,1.60
2023-09-30T00:32:32.483Z,2.65
2023-09-30T00:33:35.756Z,1.95
2023-09-30T00:34:38.823Z,1.55
2023-09-30T00:35:41.680Z,1.62
2023-09-30T00:36:44.491Z,2.17
2023-09-30T00:37:48.035Z,1.98
2023-09-30T00:38:51.064Z,1.70
2023-09-30T00:39:54.745Z,2.13
2023-09-30T00:40:57.640Z,1.95
2023-09-30T00:42:00.788Z,1.80
2023-09-30T00:43:04.842Z,1.77
2023-09-30T00:44:09.344Z,1.20
2023-09-30T00:45:12.556Z,1.00
2023-09-30T00:46:28.278Z,1.48
2023-09-30T00:47:31.652Z,1.62
2023-09-30T00:48:35.875Z,1.42
2023-09-30T00:49:39.892Z,2.03
2023-09-30T00:50:43.448Z,1.10
2023-09-30T00:51:49.533Z,1.37
2023-09-30T00:52:52.805Z,2.28
2023-09-30T00:54:00.188Z,1.17
2023-09-30T00:55:04.398Z,1.20
2023-09-30T00:56:07.628Z,1.98
2023-09-30T00:57:12.522Z,1.85
2023-09-30T00:58:15.630Z,2.40
2023-09-30T00:59:18.604Z,1.85
2023-09-30T01:00:21.735Z,1.20
2023-09-30T01:01:25.226Z,1.63
2023-09-30T01:02:28.112Z,1.40
2023-09-30T01:03:31.068Z,1.65
2023-09-30T01:04:34.386Z,1.80
2023-09-30T01:05:37.780Z,2.47
2023-09-30T01:06:40.496Z,1.67
2023-09-30T01:07:43.469Z,1.98
2023-09-30T01:08:46.405Z,1.95
2023-09-30T01:09:49.618Z,1.92
2023-09-30T01:10:52.889Z,1.27
2023-09-30T01:11:55.795Z,1.90
2023-09-30T01:12:58.860Z,1.42
2023-09-30T01:14:01.802Z,2.03
2023-09-30T01:15:08.381Z,1.75
2023-09-30T01:16:12.733Z,1.87
2023-09-30T01:17:16.263Z,1.67
2023-09-30T01:18:19.367Z,1.58
2023-09-30T01:19:22.515Z,1.70
2023-09-30T01:20:25.767Z,1.00
2023-09-30T01:21:29.149Z,1.50
2023-09-30T01:22:31.970Z,1.83
2023-09-30T01:23:36.601Z,1.35
2023-09-30T01:24:43.699Z,1.92
2023-09-30T01:25:46.706Z,1.20
2023-09-30T01:26:50.042Z,1.70
2023-09-30T01:27:53.252Z,1.25
2023-09-30T01:28:56.196Z,1.87
2023-09-30T01:29:59.362Z,1.92
2023-09-30T01:31:02.107Z,2.30
2023-09-30T01:32:10.175Z,2.33
2023-09-30T01:33:13.176Z,2.00
2023-09-30T01:34:16.693Z,1.52
2023-09-30T01:35:19.669Z,2.53
2023-09-30T01:36:22.404Z,1.52
2023-09-30T01:37:29.017Z,1.75
2023-09-30T01:38:32.019Z,1.15
2023-09-30T01:39:35.256Z,1.33
2023-09-30T01:40:38.863Z,1.80
2023-09-30T01:41:42.153Z,1.98
2023-09-30T01:42:46.590Z,3.13
2023-09-30T01:43:49.923Z,1.83
2023-09-30T01:44:52.996Z,1.52
2023-09-30T01:45:56.191Z,1.00
2023-09-30T01:46:59.780Z,1.12
2023-09-30T01:48:04.064Z,1.77
2023-09-30T01:49:06.966Z,0.95
2023-09-30T01:50:10.276Z,2.55
2023-09-30T01:51:13.125Z,0.80
2023-09-30T01:52:16.230Z,1.00
2023-09-30T01:53:19.409Z,1.00
2023-09-30T01:54:22.144Z,1.27
2023-09-30T01:55:25.237Z,2.15
2023-09-30T01:56:28.154Z,1.23
2023-09-30T01:57:30.838Z,1.45
2023-09-30T01:58:33.791Z,2.20
2023-09-30T01:59:36.837Z,1.37
2023-09-30T02:00:39.992Z,1.83
2023-09-30T02:01:43.325Z,1.08
2023-09-30T02:02:46.483Z,2.03
2023-09-30T02:03:49.608Z,0.97
2023-09-30T02:04:52.644Z,1.67
2023-09-30T02:05:55.808Z,1.62
2023-09-30T02:06:59.836Z,1.45
2023-09-30T02:08:07.339Z,1.25
2023-09-30T02:09:10.562Z,1.30
2023-09-30T02:10:13.455Z,1.20
2023-09-30T02:11:18.545Z,1.73
2023-09-30T02:12:21.681Z,1.87
2023-09-30T02:13:24.403Z,1.55
2023-09-30T02:14:27.317Z,1.83
2023-09-30T02:15:30.283Z,0.73
2023-09-30T02:16:33.219Z,1.70
2023-09-30T02:17:36.638Z,1.80
2023-09-30T02:18:39.486Z,1.37
2023-09-30T02:19:43.033Z,1.42
2023-09-30T02:20:46.078Z,2.05
2023-09-30T02:21:49.632Z,1.20
2023-09-30T02:22:53.462Z,2.30
2023-09-30T02:23:56.876Z,1.55
2023-09-30T02:25:00.084Z,1.70
2023-09-30T02:26:04.209Z,1.80
2023-09-30T02:27:07.327Z,2.03
2023-09-30T02:28:10.640Z,1.73
2023-09-30T02:29:13.293Z,1.10
2023-09-30T02:30:17.498Z,0.85
2023-09-30T02:31:20.693Z,1.98
2023-09-30T02:32:25.272Z,1.90
2023-09-30T02:33:28.548Z,1.75
2023-09-30T02:34:32.101Z,1.23
2023-09-30T02:35:34.794Z,1.60
2023-09-30T02:36:40.305Z,2.17
2023-09-30T02:37:43.322Z,1.73
2023-09-30T02:38:47.610Z,1.92
2023-09-30T02:39:50.554Z,0.90
2023-09-30T02:40:55.875Z,1.20
2023-09-30T02:41:58.944Z,1.33
2023-09-30T02:43:02.271Z,1.23
2023-09-30T02:44:05.652Z,1.05
2023-09-30T02:45:09.899Z,1.10
2023-09-30T02:46:13.880Z,1.23
2023-09-30T02:47:17.337Z,0.90
2023-09-30T02:48:20.188Z,1.02
2023-09-30T02:49:23.233Z,1.48
2023-09-30T02:50:26.212Z,0.73
2023-09-30T02:51:29.692Z,1.33
2023-09-30T02:52:33.350Z,0.90
2023-09-30T02:53:36.282Z,1.20
2023-09-30T02:54:39.462Z,1.77
2023-09-30T02:55:43.288Z,1.45
2023-09-30T02:56:47.737Z,1.60
2023-09-30T02:57:51.052Z,1.40
2023-09-30T02:58:54.005Z,1.35
2023-09-30T02:59:57.859Z,1.52
2023-09-30T03:01:01.148Z,1.33
2023-09-30T03:02:08.084Z,1.33
2023-09-30T03:03:11.466Z,2.75
2023-09-30T03:04:14.589Z,0.98
2023-09-30T03:05:18.560Z,2.67
2023-09-30T03:06:21.316Z,2.42
2023-09-30T03:07:24.058Z,1.57
2023-09-30T03:08:27.731Z,1.43
2023-09-30T03:09:30.680Z,2.08
2023-09-30T03:10:33.455Z,2.45
2023-09-30T03:11:36.326Z,1.90
2023-09-30T03:12:38.947Z,1.33
2023-09-30T03:13:43.764Z,0.90
2023-09-30T03:14:46.739Z,1.37
2023-09-30T03:15:53.035Z,1.77
2023-09-30T03:16:55.990Z,1.65
2023-09-30T03:18:01.144Z,1.13
2023-09-30T03:19:09.391Z,1.80
2023-09-30T03:20:15.947Z,1.85
2023-09-30T03:21:18.949Z,1.23
2023-09-30T03:22:21.842Z,2.47
2023-09-30T03:23:30.251Z,1.85
2023-09-30T03:24:33.439Z,1.58
2023-09-30T03:25:36.522Z,1.80
2023-09-30T03:26:42.205Z,1.48
2023-09-30T03:27:48.286Z,1.98
2023-09-30T03:28:51.542Z,1.93
2023-09-30T03:29:55.347Z,2.37
2023-09-30T03:30:58.102Z,1.30
2023-09-30T03:32:01.088Z,1.58
2023-09-30T03:33:05.835Z,1.30
2023-09-30T03:34:09.867Z,1.92
2023-09-30T03:35:18.383Z,1.83
2023-09-30T03:36:23.580Z,2.35
2023-09-30T03:37:28.020Z,1.23
2023-09-30T03:38:30.729Z,1.35
2023-09-30T03:39:34.209Z,1.20
2023-09-30T03:40:39.640Z,0.97
2023-09-30T03:41:42.251Z,2.12
2023-09-30T03:42:45.096Z,1.70
2023-09-30T03:43:50.407Z,2.20
2023-09-30T03:44:53.356Z,1.33
2023-09-30T03:45:58.551Z,1.20
2023-09-30T03:47:01.931Z,1.40
2023-09-30T03:48:05.273Z,1.45
2023-09-30T03:49:09.734Z,1.25
2023-09-30T03:50:16.470Z,1.63
2023-09-30T03:51:20.450Z,1.60
2023-09-30T03:52:26.811Z,0.90
2023-09-30T03:53:29.970Z,1.58
2023-09-30T03:54:32.854Z,2.17
2023-09-30T03:55:35.915Z,2.20
2023-09-30T03:56:39.795Z,1.45
2023-09-30T03:57:42.879Z,1.90
2023-09-30T03:58:46.216Z,2.85
2023-09-30T03:59:49.264Z,1.92
2023-09-30T04:00:53.283Z,0.90
2023-09-30T04:01:56.319Z,1.50
2023-09-30T04:03:00.041Z,1.55
2023-09-30T04:04:03.923Z,2.05
2023-09-30T04:05:08.149Z,1.58
2023-09-30T04:06:11.257Z,1.92
2023-09-30T04:07:14.524Z,1.33
2023-09-30T04:08:18.276Z,1.85
2023-09-30T04:09:21.204Z,1.60
2023-09-30T04:10:24.189Z,2.25
2023-09-30T04:11:26.993Z,1.40
2023-09-30T04:12:30.093Z,1.97
2023-09-30T04:13:34.318Z,1.48
2023-09-30T04:14:37.248Z,1.52
2023-09-30T04:15:40.610Z,1.40
2023-09-30T04:16:44.219Z,3.17
2023-09-30T04:17:47.319Z,1.42
2023-09-30T04:18:51.510Z,1.73
2023-09-30T04:19:54.982Z,2.22
2023-09-30T04:20:58.238Z,1.60
2023-09-30T04:22:01.316Z,1.30
2023-09-30T04:23:04.357Z,2.43
2023-09-30T04:24:08.141Z,1.60
2023-09-30T04:25:12.066Z,1.25
2023-09-30T04:26:14.709Z,2.15
2023-09-30T04:27:18.227Z,2.35
2023-09-30T04:28:21.775Z,1.83
2023-09-30T04:29:24.747Z,1.33
2023-09-30T04:30:28.898Z,1.48
2023-09-30T04:31:32.015Z,1.12
2023-09-30T04:32:35.010Z,1.53
2023-09-30T04:33:38.838Z,1.67
2023-09-30T04:34:43.541Z,1.80
2023-09-30T04:35:48.637Z,1.98
2023-09-30T04:36:51.418Z,1.65
2023-09-30T04:37:54.352Z,1.90
2023-09-30T04:39:02.207Z,2.00
2023-09-30T04:40:21.493Z,2.05
2023-09-30T04:41:26.998Z,2.00
2023-09-30T04:42:29.963Z,2.00
2023-09-30T04:43:33.900Z,2.37
2023-09-30T04:44:38.957Z,2.23
2023-09-30T04:45:41.894Z,1.65
2023-09-30T04:46:47.445Z,1.50
2023-09-30T04:47:50.774Z,1.37
2023-09-30T04:48:53.865Z,2.58
2023-09-30T04:50:00.330Z,1.75
2023-09-30T04:51:07.666Z,1.92
2023-09-30T04:52:10.777Z,1.30
2023-09-30T04:53:14.260Z,1.62
2023-09-30T04:54:17.165Z,1.43
2023-09-30T04:55:21.044Z,1.20
2023-09-30T04:56:24.459Z,2.05
2023-09-30T04:57:27.848Z,1.95
2023-09-30T04:58:31.130Z,1.80
2023-09-30T04:59:34.087Z,2.55
2023-09-30T05:00:37.488Z,2.08
2023-09-30T05:01:40.421Z,2.12
2023-09-30T05:02:44.251Z,1.48
2023-09-30T05:03:50.858Z,2.17
2023-09-30T05:04:54.490Z,1.83
2023-09-30T05:05:59.428Z,2.10
2023-09-30T05:07:02.564Z,2.08
2023-09-30T05:08:05.633Z,2.37
2023-09-30T05:09:08.991Z,2.05
2023-09-30T05:10:15.052Z,1.77
2023-09-30T05:11:18.119Z,1.70
2023-09-30T05:12:21.495Z,1.83
2023-09-30T05:13:27.128Z,2.20
2023-09-30T05:14:30.234Z,1.30
2023-09-30T05:15:34.156Z,2.67
2023-09-30T05:16:37.992Z,1.83
2023-09-30T05:17:41.068Z,1.87
2023-09-30T05:18:44.504Z,1.70
2023-09-30T05:19:47.556Z,2.10
2023-09-30T05:20:50.803Z,2.50
2023-09-30T05:21:53.945Z,2.42
2023-09-30T05:22:57.447Z,1.65
2023-09-30T05:24:00.070Z,1.62
2023-09-30T05:25:03.299Z,1.85
2023-09-30T05:26:06.306Z,1.17
2023-09-30T05:27:10.714Z,2.00
2023-09-30T05:28:14.887Z,1.77
2023-09-30T05:29:18.032Z,1.77
2023-09-30T05:30:21.537Z,2.33
2023-09-30T05:31:24.512Z,1.85
2023-09-30T05:32:28.283Z,2.28
2023-09-30T05:33:31.822Z,2.05
2023-09-30T05:34:34.720Z,1.30
2023-09-30T05:35:37.291Z,1.87
2023-09-30T05:36:40.648Z,1.77
2023-09-30T05:37:46.478Z,1.73
2023-09-30T05:38:49.516Z,1.48
2023-09-30T05:39:52.412Z,1.65
2023-09-30T05:41:03.358Z,1.80
2023-09-30T05:42:06.905Z,2.42
2023-09-30T05:43:10.035Z,1.77
2023-09-30T05:44:12.883Z,2.35
2023-09-30T05:45:16.925Z,2.15
2023-09-30T05:46:20.117Z,2.42
2023-09-30T05:47:22.778Z,1.93
2023-09-30T05:48:25.978Z,6.13
2023-09-30T05:49:28.929Z,6.95
2023-09-30T05:50:32.782Z,5.65
2023-09-30T05:51:35.656Z,3.78
2023-09-30T05:52:38.629Z,3.55
2023-09-30T05:53:44.481Z,1.90
2023-09-30T05:54:47.602Z,2.72
2023-09-30T05:55:52.051Z,2.87
2023-09-30T05:56:55.040Z,2.83
2023-09-30T05:57:57.850Z,1.83
2023-09-30T05:59:01.282Z,2.13
2023-09-30T06:00:28.182Z,1.70
2023-09-30T06:01:31.610Z,2.15
2023-09-30T06:02:38.137Z,2.12
2023-09-30T06:03:42.648Z,2.42
2023-09-30T06:04:47.486Z,1.87
2023-09-30T06:05:50.451Z,2.33
2023-09-30T06:06:54.504Z,1.75
2023-09-30T06:07:58.038Z,2.28
2023-09-30T06:09:01.151Z,3.73
2023-09-30T06:10:04.458Z,2.57
2023-09-30T06:11:07.794Z,1.98
2023-09-30T06:12:13.129Z,2.22
2023-09-30T06:13:16.868Z,1.95
2023-09-30T06:14:20.011Z,1.48
2023-09-30T06:15:27.204Z,2.40
2023-09-30T06:16:33.044Z,2.10
2023-09-30T06:17:36.285Z,2.03
2023-09-30T06:18:39.549Z,1.70
2023-09-30T06:19:42.484Z,2.25
2023-09-30T06:20:45.352Z,1.80
2023-09-30T06:21:48.534Z,1.58
2023-09-30T06:22:51.661Z,2.40
2023-09-30T06:23:54.574Z,2.03
2023-09-30T06:24:57.595Z,2.05
2023-09-30T06:26:03.546Z,1.55
2023-09-30T06:27:06.990Z,2.85
2023-09-30T06:28:10.863Z,1.62
2023-09-30T06:29:13.825Z,2.65
2023-09-30T06:30:17.868Z,2.33
2023-09-30T06:31:21.438Z,1.43
2023-09-30T06:32:24.411Z,2.03
2023-09-30T06:33:30.831Z,1.70
2023-09-30T06:34:35.649Z,2.12
2023-09-30T06:35:41.273Z,1.80
2023-09-30T06:36:44.934Z,1.62
2023-09-30T06:37:48.757Z,1.65
2023-09-30T06:38:53.221Z,2.42
2023-09-30T06:39:56.882Z,1.90
2023-09-30T06:41:01.108Z,1.23
2023-09-30T06:42:04.723Z,2.03
2023-09-30T06:43:07.291Z,1.65
2023-09-30T06:44:10.526Z,1.90
2023-09-30T06:45:14.203Z,2.12
2023-09-30T06:46:17.942Z,1.95
2023-09-30T06:47:21.990Z,2.30
2023-09-30T06:48:25.018Z,1.90
2023-09-30T06:49:29.135Z,1.52
2023-09-30T06:50:32.832Z,1.52
2023-09-30T06:51:35.468Z,1.60
2023-09-30T06:52:40.984Z,2.23
2023-09-30T06:53:43.869Z,1.55
2023-09-30T06:54:47.064Z,1.87
2023-09-30T06:55:50.122Z,1.80
2023-09-30T06:56:53.846Z,2.35
2023-09-30T06:57:56.608Z,2.25
2023-09-30T06:58:59.341Z,1.60
2023-09-30T07:00:13.054Z,1.62
2023-09-30T07:01:18.719Z,2.55
2023-09-30T07:02:21.353Z,2.27
2023-09-30T07:03:26.972Z,1.47
2023-09-30T07:04:31.396Z,1.33
2023-09-30T07:05:34.661Z,1.62
2023-09-30T07:06:37.313Z,1.30
2023-09-30T07:07:41.054Z,2.17
2023-09-30T07:08:44.581Z,3.50
2023-09-30T07:09:47.559Z,1.40
2023-09-30T07:10:50.986Z,1.95
2023-09-30T07:11:53.769Z,2.58
2023-09-30T07:12:57.119Z,1.85
2023-09-30T07:14:02.412Z,1.90
2023-09-30T07:15:08.548Z,1.90
2023-09-30T07:16:11.819Z,1.85
2023-09-30T07:17:15.356Z,2.05
2023-09-30T07:18:19.389Z,2.17
2023-09-30T07:19:22.451Z,3.35
2023-09-30T07:20:25.398Z,1.95
2023-09-30T07:21:28.764Z,2.83
2023-09-30T07:23:38.663Z,2.53
2023-09-30T07:24:41.320Z,2.40
2023-09-30T07:25:44.261Z,2.05
2023-09-30T07:26:47.506Z,2.55
2023-09-30T07:27:50.523Z,2.55
2023-09-30T07:28:55.553Z,2.60
2023-09-30T07:29:58.705Z,2.25
2023-09-30T07:31:01.690Z,2.37
2023-09-30T07:32:05.134Z,2.28
2023-09-30T07:33:08.259Z,1.80
2023-09-30T07:34:10.979Z,1.77
2023-09-30T07:35:16.625Z,2.00
2023-09-30T07:36:19.771Z,1.40
2023-09-30T07:37:22.988Z,1.48
2023-09-30T07:38:25.915Z,1.35
2023-09-30T07:39:28.820Z,1.80
2023-09-30T07:40:31.690Z,2.33
2023-09-30T07:41:37.975Z,2.62
2023-09-30T07:42:41.390Z,1.65
2023-09-30T07:43:44.167Z,2.05
2023-09-30T07:44:47.083Z,1.40
2023-09-30T07:45:49.751Z,2.20
2023-09-30T07:46:53.331Z,1.42
2023-09-30T07:47:56.436Z,1.70
2023-09-30T07:49:00.788Z,1.40
2023-09-30T07:50:07.687Z,2.15
2023-09-30T07:51:14.160Z,1.35
2023-09-30T07:52:16.913Z,1.73
2023-09-30T07:53:19.906Z,1.62
2023-09-30T07:54:31.386Z,2.30
2023-09-30T07:55:34.985Z,1.50
2023-09-30T07:56:37.637Z,2.60
2023-09-30T07:57:43.302Z,2.25
2023-09-30T07:58:46.572Z,2.20
2023-09-30T07:59:50.127Z,1.48
2023-09-30T08:00:53.037Z,2.35
2023-09-30T08:01:56.157Z,2.67
2023-09-30T08:03:01.786Z,1.23
2023-09-30T08:04:05.255Z,2.92
2023-09-30T08:05:08.505Z,1.55
2023-09-30T08:06:11.124Z,1.52
2023-09-30T08:07:14.875Z,1.80
2023-09-30T08:08:17.613Z,1.73
2023-09-30T08:09:20.360Z,1.65
2023-09-30T08:10:23.386Z,1.48
2023-09-30T08:11:28.749Z,2.37
2023-09-30T08:12:31.954Z,1.62
2023-09-30T08:13:35.254Z,2.12
2023-09-30T08:14:38.162Z,1.70
2023-09-30T08:15:41.200Z,2.05
2023-09-30T08:16:44.323Z,2.17
2023-09-30T08:17:47.911Z,1.87
2023-09-30T08:18:50.960Z,1.67
2023-09-30T08:19:53.853Z,2.05
2023-09-30T08:20:56.855Z,1.50
2023-09-30T08:21:59.819Z,1.35
2023-09-30T08:23:03.118Z,1.60
2023-09-30T08:24:06.340Z,2.10
2023-09-30T08:25:10.162Z,2.25
2023-09-30T08:26:12.831Z,1.95
2023-09-30T08:27:15.800Z,1.90
2023-09-30T08:28:18.982Z,1.40
2023-09-30T08:29:22.273Z,1.40
2023-09-30T08:30:24.876Z,2.40
2023-09-30T08:31:27.839Z,2.35
2023-09-30T08:32:39.263Z,2.28
2023-09-30T08:33:45.015Z,1.45
2023-09-30T08:34:47.944Z,1.48
2023-09-30T08:35:52.084Z,1.95
2023-09-30T08:36:55.126Z,1.87
2023-09-30T08:37:59.457Z,1.87
2023-09-30T08:39:02.768Z,1.57
2023-09-30T08:40:06.255Z,1.30
2023-09-30T08:41:09.528Z,1.85
2023-09-30T08:42:12.756Z,1.27
2023-09-30T08:43:20.765Z,2.17
2023-09-30T08:44:24.182Z,1.45
2023-09-30T08:45:29.467Z,2.67
2023-09-30T08:46:35.072Z,1.50
2023-09-30T08:47:38.360Z,1.37
2023-09-30T08:48:41.436Z,1.12
2023-09-30T08:49:45.334Z,2.00
2023-09-30T08:50:50.532Z,1.75
2023-09-30T08:51:57.243Z,2.42
2023-09-30T08:53:01.735Z,1.45
2023-09-30T08:54:05.298Z,1.67
2023-09-30T08:55:10.126Z,1.30
2023-09-30T08:56:16.174Z,2.00
2023-09-30T08:57:20.743Z,1.83
2023-09-30T08:58:29.834Z,1.77
2023-09-30T08:59:36.409Z,1.40
2023-09-30T09:00:40.693Z,2.80
2023-09-30T09:01:44.632Z,1.52
2023-09-30T09:02:47.958Z,2.33
2023-09-30T09:03:54.229Z,2.30
2023-09-30T09:04:59.507Z,1.40
2023-09-30T09:06:03.399Z,1.55
2023-09-30T09:07:06.119Z,1.60
2023-09-30T09:08:10.969Z,1.65
2023-09-30T09:09:18.774Z,2.03
2023-09-30T09:10:21.894Z,1.58
2023-09-30T09:11:25.553Z,2.67
2023-09-30T09:12:28.554Z,1.52
2023-09-30T09:13:56.769Z,1.62
2023-09-30T09:14:59.818Z,1.65
2023-09-30T09:16:12.696Z,1.60
2023-09-30T09:17:17.261Z,1.60
2023-09-30T09:18:37.392Z,1.08
2023-09-30T09:19:40.433Z,1.70
2023-09-30T09:20:43.284Z,1.85
2023-09-30T09:21:57.922Z,1.25
2023-09-30T09:23:01.627Z,3.27
2023-09-30T09:24:04.787Z,3.17
2023-09-30T09:25:08.584Z,1.40
2023-09-30T09:26:12.876Z,1.67
2023-09-30T09:27:20.923Z,1.52
2023-09-30T09:28:35.546Z,1.10
2023-09-30T09:29:39.917Z,1.55
2023-09-30T09:30:45.000Z,1.80
2023-09-30T09:31:47.965Z,1.73
2023-09-30T09:33:01.768Z,1.98
2023-09-30T09:34:14.137Z,1.00
2023-09-30T09:35:23.799Z,1.92
2023-09-30T09:36:44.630Z,1.37
2023-09-30T09:37:59.554Z,1.23
2023-09-30T09:39:02.540Z,1.55
2023-09-30T09:40:08.842Z,1.87
2023-09-30T09:41:11.707Z,1.20
2023-09-30T09:42:25.699Z,1.67
2023-09-30T09:43:28.671Z,1.65
2023-09-30T09:44:32.509Z,2.40
2023-09-30T09:45:37.901Z,1.60
2023-09-30T09:46:40.974Z,1.10
2023-09-30T09:47:43.862Z,1.15
2023-09-30T09:48:50.623Z,2.65
2023-09-30T09:49:55.472Z,1.48
2023-09-30T09:51:00.461Z,0.77
2023-09-30T09:52:04.946Z,1.12
2023-09-30T09:53:09.915Z,1.20
2023-09-30T09:54:13.881Z,1.42
2023-09-30T09:55:18.354Z,1.08
2023-09-30T09:56:22.619Z,0.90
2023-09-30T09:57:27.255Z,0.77
2023-09-30T09:58:34.759Z,1.17
2023-09-30T09:59:41.405Z,1.37
2023-09-30T10:00:46.373Z,0.75
2023-09-30T10:01:50.534Z,1.23
2023-09-30T10:02:54.606Z,1.30
2023-09-30T10:03:58.141Z,1.58
2023-09-30T10:05:03.845Z,1.05
2023-09-30T10:06:07.628Z,0.98
2023-09-30T10:07:17.788Z,1.17
2023-09-30T10:08:22.975Z,0.70
2023-09-30T10:09:27.841Z,1.10
2023-09-30T10:10:32.653Z,0.80
2023-09-30T10:11:36.838Z,0.62
2023-09-30T10:12:40.722Z,0.98
2023-09-30T10:14:04.240Z,1.20
2023-09-30T10:15:25.499Z,1.08
2023-09-30T10:16:37.704Z,0.68
2023-09-30T10:18:13.944Z,0.82
2023-09-30T10:19:23.626Z,3.07
2023-09-30T10:20:31.900Z,1.12
2023-09-30T10:21:34.981Z,1.35
2023-09-30T10:22:38.254Z,2.03
2023-09-30T10:23:41.164Z,1.50
2023-09-30T10:24:44.698Z,1.25
2023-09-30T10:25:48.939Z,1.45
2023-09-30T10:27:25.824Z,1.17
2023-09-30T10:28:42.311Z,1.10
2023-09-30T10:29:45.956Z,1.23
2023-09-30T10:31:26.296Z,0.73
2023-09-30T10:32:51.341Z,0.70
2023-09-30T10:34:03.544Z,1.12
2023-09-30T10:35:07.472Z,0.75
2023-09-30T10:36:10.536Z,0.98
2023-09-30T10:37:26.153Z,0.75
2023-09-30T10:38:35.028Z,1.45
2023-09-30T10:40:05.638Z,1.15
2023-09-30T10:41:10.428Z,0.73
2023-09-30T10:42:52.361Z,0.95
2023-09-30T10:43:55.401Z,0.77
2023-09-30T10:44:58.088Z,0.82
2023-09-30T10:46:01.899Z,0.77
2023-09-30T10:47:23.605Z,1.20
2023-09-30T10:48:26.614Z,1.02
2023-09-30T10:49:29.674Z,0.50
2023-09-30T10:51:02.870Z,0.98
2023-09-30T10:52:06.523Z,1.25
2023-09-30T10:53:10.477Z,1.55
2023-09-30T10:54:14.314Z,1.20
2023-09-30T10:55:20.663Z,0.97
2023-09-30T10:56:24.651Z,1.40
2023-09-30T10:57:31.909Z,1.08
2023-09-30T10:58:41.237Z,0.90
2023-09-30T10:59:43.889Z,0.90
2023-09-30T11:00:56.552Z,1.00
2023-09-30T11:02:00.118Z,0.93
2023-09-30T11:03:03.998Z,1.23
2023-09-30T11:04:09.811Z,0.80
2023-09-30T11:05:13.165Z,0.60
2023-09-30T11:06:22.427Z,0.90
2023-09-30T11:07:27.420Z,0.73
2023-09-30T11:08:31.387Z,0.85
2023-09-30T11:09:35.319Z,0.93
2023-09-30T11:10:38.282Z,0.50
2023-09-30T11:11:50.161Z,0.93
2023-09-30T11:12:59.815Z,0.75
2023-09-30T11:14:03.801Z,0.73
2023-09-30T11:15:10.150Z,0.77
2023-09-30T11:16:13.977Z,0.60
2023-09-30T11:17:23.322Z,0.70
2023-09-30T11:18:26.315Z,0.77
2023-09-30T11:19:50.089Z,1.10
2023-09-30T11:21:08.098Z,0.55
2023-09-30T11:22:11.141Z,0.85
2023-09-30T11:23:13.964Z,0.45
2023-09-30T11:24:17.333Z,0.62
2023-09-30T11:25:20.732Z,0.77
2023-09-30T11:26:34.428Z,0.73
2023-09-30T11:27:37.830Z,0.98
2023-09-30T11:28:44.590Z,0.63
2023-09-30T11:29:51.389Z,0.75
2023-09-30T11:30:59.455Z,0.70
2023-09-30T11:32:04.139Z,0.88
2023-09-30T11:33:08.484Z,0.50
2023-09-30T11:34:12.831Z,0.50
2023-09-30T11:35:24.987Z,0.82
2023-09-30T11:36:28.339Z,1.10
2023-09-30T11:37:35.001Z,0.80
2023-09-30T11:38:38.053Z,0.53
2023-09-30T11:39:41.672Z,0.80
2023-09-30T11:40:59.622Z,0.68
2023-09-30T11:42:03.830Z,0.77
2023-09-30T11:43:13.472Z,1.20
2023-09-30T11:44:17.867Z,1.08
2023-09-30T11:45:23.743Z,1.20
2023-09-30T11:46:29.104Z,1.10
2023-09-30T11:47:34.297Z,0.65
2023-09-30T11:49:01.258Z,0.52
2023-09-30T11:50:05.774Z,0.70
2023-09-30T11:51:09.451Z,0.73
2023-09-30T11:52:14.687Z,0.50
2023-09-30T11:53:19.205Z,0.85
2023-09-30T11:54:23.847Z,0.88
2023-09-30T11:55:28.118Z,0.50
2023-09-30T11:56:31.039Z,0.55
2023-09-30T11:57:36.102Z,0.90
2023-09-30T11:58:40.630Z,0.70
2023-09-30T11:59:46.393Z,0.80
2023-09-30T12:00:52.137Z,0.47
2023-09-30T12:02:10.691Z,0.75
2023-09-30T12:03:16.347Z,0.50
2023-09-30T12:04:20.527Z,0.98
2023-09-30T12:05:23.788Z,0.90
2023-09-30T12:06:27.048Z,0.60
2023-09-30T12:07:29.985Z,0.90
2023-09-30T12:08:33.287Z,0.50
2023-09-30T12:09:38.423Z,0.70
2023-09-30T12:10:41.648Z,1.05
2023-09-30T12:11:45.288Z,1.17
2023-09-30T12:12:48.890Z,0.50
2023-09-30T12:13:52.225Z,0.50
2023-09-30T12:14:56.241Z,0.47
2023-09-30T12:15:59.196Z,0.60
2023-09-30T12:17:02.294Z,0.50
2023-09-30T12:18:08.089Z,0.90
2023-09-30T12:19:11.406Z,0.95
2023-09-30T12:20:17.165Z,0.60
2023-09-30T12:21:21.559Z,0.80
2023-09-30T12:22:24.604Z,0.60
2023-09-30T12:23:27.765Z,1.02
2023-09-30T12:24:30.680Z,0.70
2023-09-30T12:25:34.651Z,0.80
2023-09-30T12:26:42.569Z,0.40
2023-09-30T12:27:45.577Z,0.50
2023-09-30T12:28:49.388Z,0.68
2023-09-30T12:29:53.166Z,0.70
2023-09-30T12:30:56.109Z,0.52
2023-09-30T12:31:58.877Z,0.80
2023-09-30T12:33:02.145Z,0.70
2023-09-30T12:34:05.562Z,0.60
2023-09-30T12:35:09.062Z,0.82
2023-09-30T12:36:14.227Z,0.70
2023-09-30T12:37:18.110Z,0.60
2023-09-30T12:38:21.058Z,0.50
2023-09-30T12:39:26.306Z,0.70
2023-09-30T12:40:30.829Z,0.70
2023-09-30T12:41:34.004Z,0.77
2023-09-30T12:42:36.749Z,0.70
2023-09-30T12:43:39.624Z,0.50
2023-09-30T12:44:42.958Z,0.45
2023-09-30T12:45:46.729Z,0.85
2023-09-30T12:46:49.784Z,0.40
2023-09-30T12:47:53.841Z,0.60
2023-09-30T12:48:56.918Z,0.35
2023-09-30T12:50:00.323Z,1.30
2023-09-30T12:51:05.990Z,0.60
2023-09-30T12:52:08.969Z,0.82
2023-09-30T12:53:11.913Z,0.60
2023-09-30T12:54:16.054Z,0.93
2023-09-30T12:55:19.705Z,0.50
2023-09-30T12:56:22.797Z,0.30
2023-09-30T12:57:25.546Z,0.82
2023-09-30T12:58:30.226Z,0.75
2023-09-30T12:59:35.373Z,0.50
2023-09-30T13:00:38.694Z,1.00
2023-09-30T13:01:42.203Z,0.88
2023-09-30T13:02:45.105Z,0.68
2023-09-30T13:03:51.202Z,0.77
2023-09-30T13:04:55.786Z,0.83
2023-09-30T13:05:59.179Z,0.40
2023-09-30T13:07:01.976Z,0.62
2023-09-30T13:08:05.425Z,0.65
2023-09-30T13:09:10.270Z,0.73
2023-09-30T13:10:14.224Z,0.80
2023-09-30T13:11:17.569Z,0.93
2023-09-30T13:12:20.247Z,1.02
2023-09-30T13:13:23.013Z,0.93
2023-09-30T13:14:25.675Z,0.40
2023-09-30T13:15:28.659Z,0.57
2023-09-30T13:16:32.522Z,1.23
2023-09-30T13:17:35.590Z,0.77
2023-09-30T13:18:38.616Z,0.80
2023-09-30T13:19:42.834Z,0.52
2023-09-30T13:20:45.447Z,0.90
2023-09-30T13:21:49.516Z,1.15
2023-09-30T13:22:52.271Z,1.15
2023-09-30T13:23:55.174Z,0.65
2023-09-30T13:24:58.170Z,0.57
2023-09-30T13:26:01.604Z,0.70
2023-09-30T13:27:05.020Z,0.60
2023-09-30T13:28:08.101Z,0.50
2023-09-30T13:29:12.939Z,0.45
2023-09-30T13:30:15.911Z,0.75
2023-09-30T13:31:18.882Z,1.05
2023-09-30T13:32:22.130Z,0.60
2023-09-30T13:33:25.338Z,0.93
2023-09-30T13:34:28.772Z,1.00
2023-09-30T13:35:31.903Z,0.82
2023-09-30T13:36:35.119Z,0.60
2023-09-30T13:37:38.408Z,0.65
2023-09-30T13:38:41.063Z,1.37
2023-09-30T13:39:43.861Z,0.88
2023-09-30T13:40:47.472Z,0.52
2023-09-30T13:41:50.230Z,1.08
2023-09-30T13:42:53.612Z,1.12
2023-09-30T13:43:56.494Z,0.90
2023-09-30T13:44:59.441Z,1.02
2023-09-30T13:46:08.207Z,0.80
2023-09-30T13:47:11.166Z,1.00
2023-09-30T13:48:14.420Z,0.70
2023-09-30T13:49:17.172Z,0.85
2023-09-30T13:50:19.913Z,1.02
2023-09-30T13:51:22.709Z,2.70
2023-09-30T13:52:25.717Z,1.98
2023-09-30T13:53:28.703Z,1.80
2023-09-30T13:54:31.814Z,1.90
2023-09-30T13:55:39.461Z,1.35
2023-09-30T13:56:42.262Z,1.25
2023-09-30T13:57:46.415Z,1.97
2023-09-30T13:58:53.406Z,1.20
2023-09-30T13:59:56.441Z,1.00
2023-09-30T14:00:59.213Z,0.95
2023-09-30T14:02:06.438Z,0.98
2023-09-30T14:03:09.584Z,0.70
2023-09-30T14:04:12.481Z,0.98
2023-09-30T14:05:15.572Z,0.60
2023-09-30T14:06:18.549Z,1.08
2023-09-30T14:07:21.890Z,0.80
2023-09-30T14:08:25.673Z,0.93
2023-09-30T14:09:35.768Z,0.82
2023-09-30T14:10:39.741Z,0.80
2023-09-30T14:11:43.151Z,1.12
2023-09-30T14:12:46.348Z,0.77
2023-09-30T14:13:50.343Z,1.25
2023-09-30T14:14:53.192Z,0.50
2023-09-30T14:15:55.829Z,0.88
2023-09-30T14:16:58.573Z,1.25
2023-09-30T14:18:03.443Z,0.40
2023-09-30T14:19:06.522Z,0.80
2023-09-30T14:20:10.194Z,0.90
2023-09-30T14:21:13.162Z,1.12
2023-09-30T14:22:16.322Z,0.98